sensor_id;sensor_type;location;lat;lon;timestamp;P1;durP1;ratioP1;P2;durP2;ratioP2
58966;SDS011;44744;51.894;5.080;2023-07-09T00:01:18;8.50;;;5.20;;
58966;SDS011;44744;51.894;5.080;2023-07-09T00:02:31;7.70;;;4.80;;
58966;SDS011;44744;51.894;5.080;2023-07-09T00:03:33;11.40;;;5.30;;
58966;SDS011;44744;51.894;5.080;2023-07-09T00:04:43;8.90;;;5.70;;
58966;SDS011;44744;51.894;5.080;2023-07-09T00:05:47;7.30;;;5.40;;
58966;SDS011;44744;51.894;5.080;2023-07-09T00:06:50;11.80;;;5.40;;
58966;SDS011;44744;51.894;5.080;2023-07-09T00:07:56;11.80;;;5.50;;
58966;SDS011;44744;51.894;5.080;2023-07-09T00:08:56;8.90;;;5.90;;
58966;SDS011;44744;51.894;5.080;2023-07-09T00:09:57;9.60;;;5.60;;
58966;SDS011;44744;51.894;5.080;2023-07-09T00:11:02;10.70;;;5.50;;
58966;SDS011;44744;51.894;5.080;2023-07-09T00:12:03;11.30;;;6.50;;
58966;SDS011;44744;51.894;5.080;2023-07-09T00:13:12;14.40;;;6.20;;
58966;SDS011;44744;51.894;5.080;2023-07-09T00:14:13;10.90;;;6.80;;
58966;SDS011;44744;51.894;5.080;2023-07-09T00:15:16;10.20;;;6.30;;
58966;SDS011;44744;51.894;5.080;2023-07-09T00:16:31;11.10;;;6.10;;
58966;SDS011;44744;51.894;5.080;2023-07-09T00:17:40;11.50;;;6.50;;
58966;SDS011;44744;51.894;5.080;2023-07-09T00:18:45;9.30;;;6.00;;
58966;SDS011;44744;51.894;5.080;2023-07-09T00:19:47;9.90;;;6.60;;
58966;SDS011;44744;51.894;5.080;2023-07-09T00:20:48;12.00;;;7.30;;
58966;SDS011;44744;51.894;5.080;2023-07-09T00:21:49;10.30;;;6.70;;
58966;SDS011;44744;51.894;5.080;2023-07-09T00:24:12;12.10;;;7.50;;
58966;SDS011;44744;51.894;5.080;2023-07-09T00:25:13;14.30;;;7.90;;
58966;SDS011;44744;51.894;5.080;2023-07-09T00:27:18;10.80;;;7.40;;
58966;SDS011;44744;51.894;5.080;2023-07-09T00:28:26;11.50;;;7.00;;
58966;SDS011;44744;51.894;5.080;2023-07-09T00:29:28;13.50;;;7.30;;
58966;SDS011;44744;51.894;5.080;2023-07-09T00:30:37;14.30;;;7.50;;
58966;SDS011;44744;51.894;5.080;2023-07-09T00:31:38;12.30;;;7.00;;
58966;SDS011;44744;51.894;5.080;2023-07-09T00:32:42;11.30;;;7.00;;
58966;SDS011;44744;51.894;5.080;2023-07-09T00:33:43;13.30;;;7.90;;
58966;SDS011;44744;51.894;5.080;2023-07-09T00:34:50;9.00;;;6.80;;
58966;SDS011;44744;51.894;5.080;2023-07-09T00:35:53;9.80;;;6.70;;
58966;SDS011;44744;51.894;5.080;2023-07-09T00:36:53;13.00;;;7.80;;
58966;SDS011;44744;51.894;5.080;2023-07-09T00:37:54;12.00;;;7.30;;
58966;SDS011;44744;51.894;5.080;2023-07-09T00:38:57;11.60;;;7.40;;
58966;SDS011;44744;51.894;5.080;2023-07-09T00:39:58;12.60;;;7.60;;
58966;SDS011;44744;51.894;5.080;2023-07-09T00:41:59;11.40;;;7.10;;
58966;SDS011;44744;51.894;5.080;2023-07-09T00:43:00;12.40;;;7.20;;
58966;SDS011;44744;51.894;5.080;2023-07-09T00:45:29;10.30;;;6.50;;
58966;SDS011;44744;51.894;5.080;2023-07-09T00:48:00;11.10;;;7.00;;
58966;SDS011;44744;51.894;5.080;2023-07-09T00:49:07;10.70;;;6.30;;
58966;SDS011;44744;51.894;5.080;2023-07-09T00:50:15;12.20;;;7.10;;
58966;SDS011;44744;51.894;5.080;2023-07-09T00:51:26;10.20;;;6.50;;
58966;SDS011;44744;51.894;5.080;2023-07-09T00:52:35;10.00;;;6.90;;
58966;SDS011;44744;51.894;5.080;2023-07-09T00:53:40;10.10;;;6.80;;
58966;SDS011;44744;51.894;5.080;2023-07-09T00:54:44;11.10;;;6.90;;
58966;SDS011;44744;51.894;5.080;2023-07-09T00:55:54;12.60;;;6.30;;
58966;SDS011;44744;51.894;5.080;2023-07-09T00:57:10;11.10;;;6.90;;
58966;SDS011;44744;51.894;5.080;2023-07-09T00:58:32;11.30;;;6.90;;
58966;SDS011;44744;51.894;5.080;2023-07-09T00:59:48;13.50;;;7.50;;
58966;SDS011;44744;51.894;5.080;2023-07-09T01:01:02;10.20;;;6.80;;
58966;SDS011;44744;51.894;5.080;2023-07-09T01:02:07;11.90;;;6.20;;
58966;SDS011;44744;51.894;5.080;2023-07-09T01:03:35;10.20;;;6.40;;
58966;SDS011;44744;51.894;5.080;2023-07-09T01:04:43;9.70;;;6.70;;
58966;SDS011;44744;51.894;5.080;2023-07-09T01:05:45;10.50;;;7.20;;
58966;SDS011;44744;51.894;5.080;2023-07-09T01:06:50;9.80;;;6.90;;
58966;SDS011;44744;51.894;5.080;2023-07-09T01:08:02;11.10;;;7.10;;
58966;SDS011;44744;51.894;5.080;2023-07-09T01:09:06;11.70;;;6.90;;
58966;SDS011;44744;51.894;5.080;2023-07-09T01:10:07;13.10;;;7.10;;
58966;SDS011;44744;51.894;5.080;2023-07-09T01:11:18;10.90;;;6.50;;
58966;SDS011;44744;51.894;5.080;2023-07-09T01:12:33;11.40;;;7.00;;
58966;SDS011;44744;51.894;5.080;2023-07-09T01:13:36;9.80;;;6.60;;
58966;SDS011;44744;51.894;5.080;2023-07-09T01:14:40;9.80;;;6.10;;
58966;SDS011;44744;51.894;5.080;2023-07-09T01:15:40;12.10;;;7.30;;
58966;SDS011;44744;51.894;5.080;2023-07-09T01:16:43;10.00;;;6.80;;
58966;SDS011;44744;51.894;5.080;2023-07-09T01:17:49;11.60;;;7.10;;
58966;SDS011;44744;51.894;5.080;2023-07-09T01:18:55;9.90;;;7.00;;
58966;SDS011;44744;51.894;5.080;2023-07-09T01:19:58;8.70;;;6.60;;
58966;SDS011;44744;51.894;5.080;2023-07-09T01:21:07;11.30;;;7.20;;
58966;SDS011;44744;51.894;5.080;2023-07-09T01:22:28;8.60;;;6.10;;
58966;SDS011;44744;51.894;5.080;2023-07-09T01:26:14;9.30;;;6.30;;
58966;SDS011;44744;51.894;5.080;2023-07-09T01:27:23;11.60;;;7.00;;
58966;SDS011;44744;51.894;5.080;2023-07-09T01:28:28;12.30;;;6.70;;
58966;SDS011;44744;51.894;5.080;2023-07-09T01:29:32;10.90;;;6.80;;
58966;SDS011;44744;51.894;5.080;2023-07-09T01:30:40;10.40;;;7.10;;
58966;SDS011;44744;51.894;5.080;2023-07-09T01:31:48;12.30;;;6.70;;
58966;SDS011;44744;51.894;5.080;2023-07-09T01:32:55;9.50;;;6.80;;
58966;SDS011;44744;51.894;5.080;2023-07-09T01:34:02;9.30;;;6.50;;
58966;SDS011;44744;51.894;5.080;2023-07-09T01:35:06;9.60;;;6.40;;
58966;SDS011;44744;51.894;5.080;2023-07-09T01:37:42;12.40;;;6.80;;
58966;SDS011;44744;51.894;5.080;2023-07-09T01:38:43;12.70;;;6.90;;
58966;SDS011;44744;51.894;5.080;2023-07-09T01:42:39;12.30;;;6.90;;
58966;SDS011;44744;51.894;5.080;2023-07-09T01:43:43;11.60;;;6.80;;
58966;SDS011;44744;51.894;5.080;2023-07-09T01:44:48;10.10;;;6.80;;
58966;SDS011;44744;51.894;5.080;2023-07-09T01:45:59;9.50;;;7.20;;
58966;SDS011;44744;51.894;5.080;2023-07-09T01:47:14;9.30;;;6.50;;
58966;SDS011;44744;51.894;5.080;2023-07-09T01:48:19;10.00;;;6.80;;
58966;SDS011;44744;51.894;5.080;2023-07-09T01:49:25;9.90;;;6.50;;
58966;SDS011;44744;51.894;5.080;2023-07-09T01:50:25;10.70;;;7.30;;
58966;SDS011;44744;51.894;5.080;2023-07-09T01:51:25;9.50;;;7.20;;
58966;SDS011;44744;51.894;5.080;2023-07-09T01:52:41;10.70;;;7.00;;
58966;SDS011;44744;51.894;5.080;2023-07-09T01:53:51;11.20;;;7.50;;
58966;SDS011;44744;51.894;5.080;2023-07-09T01:54:52;13.50;;;7.10;;
58966;SDS011;44744;51.894;5.080;2023-07-09T01:55:53;11.70;;;7.80;;
58966;SDS011;44744;51.894;5.080;2023-07-09T01:57:00;9.20;;;6.80;;
58966;SDS011;44744;51.894;5.080;2023-07-09T01:58:22;10.20;;;7.10;;
58966;SDS011;44744;51.894;5.080;2023-07-09T01:59:23;10.10;;;7.30;;
58966;SDS011;44744;51.894;5.080;2023-07-09T02:00:25;8.50;;;7.00;;
58966;SDS011;44744;51.894;5.080;2023-07-09T02:01:29;9.90;;;6.90;;
58966;SDS011;44744;51.894;5.080;2023-07-09T02:02:51;10.60;;;7.30;;
58966;SDS011;44744;51.894;5.080;2023-07-09T02:03:51;13.10;;;7.90;;
58966;SDS011;44744;51.894;5.080;2023-07-09T02:04:55;14.60;;;7.80;;
58966;SDS011;44744;51.894;5.080;2023-07-09T02:05:59;9.60;;;7.20;;
58966;SDS011;44744;51.894;5.080;2023-07-09T02:07:03;12.80;;;7.30;;
58966;SDS011;44744;51.894;5.080;2023-07-09T02:08:07;11.60;;;7.50;;
58966;SDS011;44744;51.894;5.080;2023-07-09T02:09:26;13.70;;;7.60;;
58966;SDS011;44744;51.894;5.080;2023-07-09T02:10:26;11.80;;;7.10;;
58966;SDS011;44744;51.894;5.080;2023-07-09T02:11:34;13.40;;;8.10;;
58966;SDS011;44744;51.894;5.080;2023-07-09T02:12:35;9.10;;;6.70;;
58966;SDS011;44744;51.894;5.080;2023-07-09T02:13:37;8.50;;;6.70;;
58966;SDS011;44744;51.894;5.080;2023-07-09T02:14:43;10.60;;;7.40;;
58966;SDS011;44744;51.894;5.080;2023-07-09T02:15:44;9.60;;;7.10;;
58966;SDS011;44744;51.894;5.080;2023-07-09T02:16:45;13.40;;;7.90;;
58966;SDS011;44744;51.894;5.080;2023-07-09T02:17:50;10.40;;;7.00;;
58966;SDS011;44744;51.894;5.080;2023-07-09T02:19:10;12.30;;;6.80;;
58966;SDS011;44744;51.894;5.080;2023-07-09T02:20:14;11.60;;;7.50;;
58966;SDS011;44744;51.894;5.080;2023-07-09T02:21:18;11.90;;;7.10;;
58966;SDS011;44744;51.894;5.080;2023-07-09T02:22:22;13.20;;;7.60;;
58966;SDS011;44744;51.894;5.080;2023-07-09T02:23:30;11.40;;;7.50;;
58966;SDS011;44744;51.894;5.080;2023-07-09T02:24:30;13.50;;;7.70;;
58966;SDS011;44744;51.894;5.080;2023-07-09T02:25:32;10.60;;;7.50;;
58966;SDS011;44744;51.894;5.080;2023-07-09T02:26:39;11.80;;;7.50;;
58966;SDS011;44744;51.894;5.080;2023-07-09T02:27:39;11.80;;;7.70;;
58966;SDS011;44744;51.894;5.080;2023-07-09T02:28:39;10.20;;;7.60;;
58966;SDS011;44744;51.894;5.080;2023-07-09T02:29:40;9.60;;;7.50;;
58966;SDS011;44744;51.894;5.080;2023-07-09T02:30:42;13.50;;;8.10;;
58966;SDS011;44744;51.894;5.080;2023-07-09T02:31:45;11.10;;;7.30;;
58966;SDS011;44744;51.894;5.080;2023-07-09T02:32:47;11.00;;;8.20;;
58966;SDS011;44744;51.894;5.080;2023-07-09T02:33:49;11.70;;;8.20;;
58966;SDS011;44744;51.894;5.080;2023-07-09T02:34:50;10.40;;;8.10;;
58966;SDS011;44744;51.894;5.080;2023-07-09T02:35:55;12.20;;;8.20;;
58966;SDS011;44744;51.894;5.080;2023-07-09T02:36:58;10.10;;;8.50;;
58966;SDS011;44744;51.894;5.080;2023-07-09T02:38:02;14.30;;;8.40;;
58966;SDS011;44744;51.894;5.080;2023-07-09T02:39:03;10.70;;;8.30;;
58966;SDS011;44744;51.894;5.080;2023-07-09T02:40:11;17.90;;;8.80;;
58966;SDS011;44744;51.894;5.080;2023-07-09T02:41:31;10.70;;;7.50;;
58966;SDS011;44744;51.894;5.080;2023-07-09T02:42:33;12.60;;;7.40;;
58966;SDS011;44744;51.894;5.080;2023-07-09T02:43:33;13.30;;;8.40;;
58966;SDS011;44744;51.894;5.080;2023-07-09T02:44:38;10.30;;;8.00;;
58966;SDS011;44744;51.894;5.080;2023-07-09T02:45:39;11.10;;;7.80;;
58966;SDS011;44744;51.894;5.080;2023-07-09T02:46:45;11.90;;;8.30;;
58966;SDS011;44744;51.894;5.080;2023-07-09T02:48:16;26.10;;;9.20;;
58966;SDS011;44744;51.894;5.080;2023-07-09T02:49:21;10.80;;;8.30;;
58966;SDS011;44744;51.894;5.080;2023-07-09T02:50:24;14.30;;;9.00;;
58966;SDS011;44744;51.894;5.080;2023-07-09T02:51:29;10.70;;;8.80;;
58966;SDS011;44744;51.894;5.080;2023-07-09T02:52:29;12.20;;;8.60;;
58966;SDS011;44744;51.894;5.080;2023-07-09T02:53:31;12.50;;;8.80;;
58966;SDS011;44744;51.894;5.080;2023-07-09T02:54:33;14.50;;;8.40;;
58966;SDS011;44744;51.894;5.080;2023-07-09T02:55:37;11.20;;;8.10;;
58966;SDS011;44744;51.894;5.080;2023-07-09T02:56:38;12.30;;;8.30;;
58966;SDS011;44744;51.894;5.080;2023-07-09T02:57:44;11.90;;;8.30;;
58966;SDS011;44744;51.894;5.080;2023-07-09T02:58:46;11.20;;;8.00;;
58966;SDS011;44744;51.894;5.080;2023-07-09T02:59:48;11.70;;;8.50;;
58966;SDS011;44744;51.894;5.080;2023-07-09T03:00:49;20.00;;;9.40;;
58966;SDS011;44744;51.894;5.080;2023-07-09T03:01:51;13.10;;;9.10;;
58966;SDS011;44744;51.894;5.080;2023-07-09T03:02:51;14.40;;;9.10;;
58966;SDS011;44744;51.894;5.080;2023-07-09T03:03:52;15.10;;;9.20;;
58966;SDS011;44744;51.894;5.080;2023-07-09T03:05:07;11.50;;;8.90;;
58966;SDS011;44744;51.894;5.080;2023-07-09T03:06:12;11.80;;;8.50;;
58966;SDS011;44744;51.894;5.080;2023-07-09T03:07:15;13.30;;;9.10;;
58966;SDS011;44744;51.894;5.080;2023-07-09T03:08:17;12.20;;;8.90;;
58966;SDS011;44744;51.894;5.080;2023-07-09T03:09:20;13.10;;;8.80;;
58966;SDS011;44744;51.894;5.080;2023-07-09T03:10:21;11.30;;;9.00;;
58966;SDS011;44744;51.894;5.080;2023-07-09T03:11:27;13.30;;;9.00;;
58966;SDS011;44744;51.894;5.080;2023-07-09T03:12:31;13.60;;;9.60;;
58966;SDS011;44744;51.894;5.080;2023-07-09T03:13:32;11.70;;;8.60;;
58966;SDS011;44744;51.894;5.080;2023-07-09T03:14:33;14.60;;;9.50;;
58966;SDS011;44744;51.894;5.080;2023-07-09T03:15:33;13.40;;;10.10;;
58966;SDS011;44744;51.894;5.080;2023-07-09T03:16:35;13.00;;;9.20;;
58966;SDS011;44744;51.894;5.080;2023-07-09T03:17:40;12.10;;;9.00;;
58966;SDS011;44744;51.894;5.080;2023-07-09T03:18:54;11.30;;;8.80;;
58966;SDS011;44744;51.894;5.080;2023-07-09T03:19:54;14.20;;;9.10;;
58966;SDS011;44744;51.894;5.080;2023-07-09T03:20:54;12.90;;;9.90;;
58966;SDS011;44744;51.894;5.080;2023-07-09T03:22:00;11.50;;;8.70;;
58966;SDS011;44744;51.894;5.080;2023-07-09T03:24:00;13.50;;;9.50;;
58966;SDS011;44744;51.894;5.080;2023-07-09T03:25:04;15.80;;;10.50;;
58966;SDS011;44744;51.894;5.080;2023-07-09T03:26:05;14.10;;;9.30;;
58966;SDS011;44744;51.894;5.080;2023-07-09T03:27:05;12.70;;;9.00;;
58966;SDS011;44744;51.894;5.080;2023-07-09T03:28:06;14.20;;;9.70;;
58966;SDS011;44744;51.894;5.080;2023-07-09T03:29:07;14.10;;;9.50;;
58966;SDS011;44744;51.894;5.080;2023-07-09T03:30:11;16.00;;;9.70;;
58966;SDS011;44744;51.894;5.080;2023-07-09T03:31:13;13.30;;;9.10;;
58966;SDS011;44744;51.894;5.080;2023-07-09T03:32:16;13.30;;;9.60;;
58966;SDS011;44744;51.894;5.080;2023-07-09T03:33:17;17.00;;;9.90;;
58966;SDS011;44744;51.894;5.080;2023-07-09T03:34:33;14.60;;;9.60;;
58966;SDS011;44744;51.894;5.080;2023-07-09T03:35:35;12.60;;;9.70;;
58966;SDS011;44744;51.894;5.080;2023-07-09T03:36:42;13.90;;;9.90;;
58966;SDS011;44744;51.894;5.080;2023-07-09T03:37:49;12.30;;;9.80;;
58966;SDS011;44744;51.894;5.080;2023-07-09T03:38:51;14.30;;;9.20;;
58966;SDS011;44744;51.894;5.080;2023-07-09T03:39:55;11.60;;;9.20;;
58966;SDS011;44744;51.894;5.080;2023-07-09T03:40:56;13.10;;;9.10;;
58966;SDS011;44744;51.894;5.080;2023-07-09T03:42:03;13.50;;;9.30;;
58966;SDS011;44744;51.894;5.080;2023-07-09T03:43:06;13.70;;;9.90;;
58966;SDS011;44744;51.894;5.080;2023-07-09T03:44:08;21.20;;;9.60;;
58966;SDS011;44744;51.894;5.080;2023-07-09T03:45:09;12.80;;;9.80;;
58966;SDS011;44744;51.894;5.080;2023-07-09T03:46:11;14.80;;;9.80;;
58966;SDS011;44744;51.894;5.080;2023-07-09T03:47:13;14.60;;;10.30;;
58966;SDS011;44744;51.894;5.080;2023-07-09T03:48:21;11.70;;;10.10;;
58966;SDS011;44744;51.894;5.080;2023-07-09T03:49:27;11.80;;;9.60;;
58966;SDS011;44744;51.894;5.080;2023-07-09T03:50:27;15.70;;;10.60;;
58966;SDS011;44744;51.894;5.080;2023-07-09T03:51:28;15.10;;;10.80;;
58966;SDS011;44744;51.894;5.080;2023-07-09T03:52:31;14.20;;;11.00;;
58966;SDS011;44744;51.894;5.080;2023-07-09T03:53:33;12.60;;;10.20;;
58966;SDS011;44744;51.894;5.080;2023-07-09T03:54:35;14.90;;;10.80;;
58966;SDS011;44744;51.894;5.080;2023-07-09T03:55:38;16.00;;;10.70;;
58966;SDS011;44744;51.894;5.080;2023-07-09T03:56:39;14.70;;;11.30;;
58966;SDS011;44744;51.894;5.080;2023-07-09T03:57:44;14.40;;;10.10;;
58966;SDS011;44744;51.894;5.080;2023-07-09T03:58:45;16.30;;;10.50;;
58966;SDS011;44744;51.894;5.080;2023-07-09T03:59:46;12.10;;;9.80;;
58966;SDS011;44744;51.894;5.080;2023-07-09T04:00:46;15.50;;;11.50;;
58966;SDS011;44744;51.894;5.080;2023-07-09T04:01:50;15.70;;;10.50;;
58966;SDS011;44744;51.894;5.080;2023-07-09T04:02:52;13.90;;;10.20;;
58966;SDS011;44744;51.894;5.080;2023-07-09T04:03:53;13.90;;;10.80;;
58966;SDS011;44744;51.894;5.080;2023-07-09T04:04:55;14.00;;;10.40;;
58966;SDS011;44744;51.894;5.080;2023-07-09T04:07:21;14.80;;;9.70;;
58966;SDS011;44744;51.894;5.080;2023-07-09T04:08:21;13.70;;;9.90;;
58966;SDS011;44744;51.894;5.080;2023-07-09T04:09:22;13.30;;;10.30;;
58966;SDS011;44744;51.894;5.080;2023-07-09T04:10:22;13.90;;;10.10;;
58966;SDS011;44744;51.894;5.080;2023-07-09T04:11:24;13.90;;;9.80;;
58966;SDS011;44744;51.894;5.080;2023-07-09T04:12:25;13.20;;;10.80;;
58966;SDS011;44744;51.894;5.080;2023-07-09T04:13:37;14.00;;;10.50;;
58966;SDS011;44744;51.894;5.080;2023-07-09T04:14:40;18.60;;;10.30;;
58966;SDS011;44744;51.894;5.080;2023-07-09T04:15:43;14.40;;;10.30;;
58966;SDS011;44744;51.894;5.080;2023-07-09T04:16:45;14.20;;;10.20;;
58966;SDS011;44744;51.894;5.080;2023-07-09T04:17:45;15.60;;;11.70;;
58966;SDS011;44744;51.894;5.080;2023-07-09T04:18:46;12.40;;;10.30;;
58966;SDS011;44744;51.894;5.080;2023-07-09T04:19:49;14.70;;;10.50;;
58966;SDS011;44744;51.894;5.080;2023-07-09T04:21:09;14.60;;;10.80;;
58966;SDS011;44744;51.894;5.080;2023-07-09T04:22:15;12.70;;;10.60;;
58966;SDS011;44744;51.894;5.080;2023-07-09T04:23:24;14.00;;;11.00;;
58966;SDS011;44744;51.894;5.080;2023-07-09T04:24:25;22.90;;;11.80;;
58966;SDS011;44744;51.894;5.080;2023-07-09T04:25:27;13.30;;;10.90;;
58966;SDS011;44744;51.894;5.080;2023-07-09T04:26:28;18.60;;;11.10;;
58966;SDS011;44744;51.894;5.080;2023-07-09T04:27:29;14.30;;;10.80;;
58966;SDS011;44744;51.894;5.080;2023-07-09T04:28:31;16.80;;;11.10;;
58966;SDS011;44744;51.894;5.080;2023-07-09T04:29:32;14.00;;;12.00;;
58966;SDS011;44744;51.894;5.080;2023-07-09T04:30:33;14.50;;;11.80;;
58966;SDS011;44744;51.894;5.080;2023-07-09T04:31:34;16.20;;;10.80;;
58966;SDS011;44744;51.894;5.080;2023-07-09T04:32:37;14.50;;;10.50;;
58966;SDS011;44744;51.894;5.080;2023-07-09T04:33:38;14.10;;;10.80;;
58966;SDS011;44744;51.894;5.080;2023-07-09T04:34:39;20.10;;;10.70;;
58966;SDS011;44744;51.894;5.080;2023-07-09T04:35:41;16.40;;;11.20;;
58966;SDS011;44744;51.894;5.080;2023-07-09T04:36:41;15.00;;;10.00;;
58966;SDS011;44744;51.894;5.080;2023-07-09T04:37:42;15.80;;;10.30;;
58966;SDS011;44744;51.894;5.080;2023-07-09T04:38:45;14.10;;;10.70;;
58966;SDS011;44744;51.894;5.080;2023-07-09T04:39:45;13.90;;;11.00;;
58966;SDS011;44744;51.894;5.080;2023-07-09T04:40:47;15.30;;;11.90;;
58966;SDS011;44744;51.894;5.080;2023-07-09T04:41:47;16.60;;;11.70;;
58966;SDS011;44744;51.894;5.080;2023-07-09T04:42:48;14.50;;;11.30;;
58966;SDS011;44744;51.894;5.080;2023-07-09T04:44:50;15.60;;;11.90;;
58966;SDS011;44744;51.894;5.080;2023-07-09T04:45:55;16.40;;;12.40;;
58966;SDS011;44744;51.894;5.080;2023-07-09T04:47:01;17.40;;;13.70;;
58966;SDS011;44744;51.894;5.080;2023-07-09T04:48:02;17.30;;;12.90;;
58966;SDS011;44744;51.894;5.080;2023-07-09T04:49:03;16.60;;;12.70;;
58966;SDS011;44744;51.894;5.080;2023-07-09T04:50:04;20.60;;;13.10;;
58966;SDS011;44744;51.894;5.080;2023-07-09T04:51:06;17.90;;;13.20;;
58966;SDS011;44744;51.894;5.080;2023-07-09T04:52:08;15.40;;;12.80;;
58966;SDS011;44744;51.894;5.080;2023-07-09T04:53:14;16.40;;;12.30;;
58966;SDS011;44744;51.894;5.080;2023-07-09T04:55:14;17.30;;;12.50;;
58966;SDS011;44744;51.894;5.080;2023-07-09T04:56:15;15.40;;;12.40;;
58966;SDS011;44744;51.894;5.080;2023-07-09T04:57:21;16.60;;;13.00;;
58966;SDS011;44744;51.894;5.080;2023-07-09T04:58:24;17.40;;;13.20;;
58966;SDS011;44744;51.894;5.080;2023-07-09T04:59:25;17.50;;;12.50;;
58966;SDS011;44744;51.894;5.080;2023-07-09T05:00:31;19.30;;;12.50;;
58966;SDS011;44744;51.894;5.080;2023-07-09T05:01:32;18.70;;;12.30;;
58966;SDS011;44744;51.894;5.080;2023-07-09T05:02:34;16.60;;;12.00;;
58966;SDS011;44744;51.894;5.080;2023-07-09T05:04:35;21.50;;;11.30;;
58966;SDS011;44744;51.894;5.080;2023-07-09T05:05:46;14.90;;;12.20;;
58966;SDS011;44744;51.894;5.080;2023-07-09T05:06:49;17.20;;;11.90;;
58966;SDS011;44744;51.894;5.080;2023-07-09T05:07:49;16.10;;;11.20;;
58966;SDS011;44744;51.894;5.080;2023-07-09T05:08:55;15.70;;;12.40;;
58966;SDS011;44744;51.894;5.080;2023-07-09T05:09:55;16.20;;;11.90;;
58966;SDS011;44744;51.894;5.080;2023-07-09T05:10:57;14.80;;;11.40;;
58966;SDS011;44744;51.894;5.080;2023-07-09T05:11:59;18.00;;;12.70;;
58966;SDS011;44744;51.894;5.080;2023-07-09T05:13:01;16.50;;;12.80;;
58966;SDS011;44744;51.894;5.080;2023-07-09T05:14:03;15.80;;;12.50;;
58966;SDS011;44744;51.894;5.080;2023-07-09T05:15:05;15.70;;;12.80;;
58966;SDS011;44744;51.894;5.080;2023-07-09T05:17:39;15.50;;;10.40;;
58966;SDS011;44744;51.894;5.080;2023-07-09T05:18:40;14.60;;;12.10;;
58966;SDS011;44744;51.894;5.080;2023-07-09T05:21:15;14.80;;;12.50;;
58966;SDS011;44744;51.894;5.080;2023-07-09T05:22:21;17.80;;;12.50;;
58966;SDS011;44744;51.894;5.080;2023-07-09T05:23:35;14.80;;;11.80;;
58966;SDS011;44744;51.894;5.080;2023-07-09T05:24:37;14.60;;;12.10;;
58966;SDS011;44744;51.894;5.080;2023-07-09T05:25:38;16.30;;;12.30;;
58966;SDS011;44744;51.894;5.080;2023-07-09T05:26:39;18.40;;;14.30;;
58966;SDS011;44744;51.894;5.080;2023-07-09T05:27:42;18.70;;;12.50;;
58966;SDS011;44744;51.894;5.080;2023-07-09T05:28:50;18.60;;;13.00;;
58966;SDS011;44744;51.894;5.080;2023-07-09T05:29:52;17.30;;;13.40;;
58966;SDS011;44744;51.894;5.080;2023-07-09T05:30:58;20.40;;;12.80;;
58966;SDS011;44744;51.894;5.080;2023-07-09T05:31:59;18.50;;;11.60;;
58966;SDS011;44744;51.894;5.080;2023-07-09T05:32:59;18.60;;;12.50;;
58966;SDS011;44744;51.894;5.080;2023-07-09T05:34:01;18.40;;;12.90;;
58966;SDS011;44744;51.894;5.080;2023-07-09T05:35:02;16.50;;;12.40;;
58966;SDS011;44744;51.894;5.080;2023-07-09T05:36:14;16.70;;;12.80;;
58966;SDS011;44744;51.894;5.080;2023-07-09T05:37:14;15.40;;;12.60;;
58966;SDS011;44744;51.894;5.080;2023-07-09T05:38:16;16.80;;;12.90;;
58966;SDS011;44744;51.894;5.080;2023-07-09T05:39:23;15.00;;;11.90;;
58966;SDS011;44744;51.894;5.080;2023-07-09T05:40:28;19.80;;;13.10;;
58966;SDS011;44744;51.894;5.080;2023-07-09T05:41:32;16.50;;;12.10;;
58966;SDS011;44744;51.894;5.080;2023-07-09T05:42:37;16.30;;;12.40;;
58966;SDS011;44744;51.894;5.080;2023-07-09T05:43:40;20.40;;;12.70;;
58966;SDS011;44744;51.894;5.080;2023-07-09T05:45:42;15.20;;;11.90;;
58966;SDS011;44744;51.894;5.080;2023-07-09T05:46:43;17.30;;;12.50;;
58966;SDS011;44744;51.894;5.080;2023-07-09T05:47:46;15.00;;;12.40;;
58966;SDS011;44744;51.894;5.080;2023-07-09T05:48:47;15.40;;;12.10;;
58966;SDS011;44744;51.894;5.080;2023-07-09T05:49:49;20.50;;;13.40;;
58966;SDS011;44744;51.894;5.080;2023-07-09T05:51:14;15.00;;;12.50;;
58966;SDS011;44744;51.894;5.080;2023-07-09T05:52:15;17.90;;;13.20;;
58966;SDS011;44744;51.894;5.080;2023-07-09T05:53:18;17.90;;;13.10;;
58966;SDS011;44744;51.894;5.080;2023-07-09T05:54:19;18.40;;;13.00;;
58966;SDS011;44744;51.894;5.080;2023-07-09T05:55:23;17.50;;;13.60;;
58966;SDS011;44744;51.894;5.080;2023-07-09T05:56:24;15.10;;;12.20;;
58966;SDS011;44744;51.894;5.080;2023-07-09T05:57:27;16.40;;;12.50;;
58966;SDS011;44744;51.894;5.080;2023-07-09T05:58:27;15.80;;;11.90;;
58966;SDS011;44744;51.894;5.080;2023-07-09T05:59:28;18.60;;;12.40;;
58966;SDS011;44744;51.894;5.080;2023-07-09T06:00:31;18.80;;;12.70;;
58966;SDS011;44744;51.894;5.080;2023-07-09T06:01:33;16.50;;;12.40;;
58966;SDS011;44744;51.894;5.080;2023-07-09T06:02:54;16.30;;;12.70;;
58966;SDS011;44744;51.894;5.080;2023-07-09T06:03:54;15.90;;;12.80;;
58966;SDS011;44744;51.894;5.080;2023-07-09T06:05:15;14.90;;;12.20;;
58966;SDS011;44744;51.894;5.080;2023-07-09T06:06:26;17.10;;;12.50;;
58966;SDS011;44744;51.894;5.080;2023-07-09T06:07:27;17.10;;;12.80;;
58966;SDS011;44744;51.894;5.080;2023-07-09T06:10:16;14.00;;;11.10;;
58966;SDS011;44744;51.894;5.080;2023-07-09T06:11:18;18.90;;;11.70;;
58966;SDS011;44744;51.894;5.080;2023-07-09T06:12:18;18.10;;;11.80;;
58966;SDS011;44744;51.894;5.080;2023-07-09T06:13:20;15.50;;;12.30;;
58966;SDS011;44744;51.894;5.080;2023-07-09T06:16:10;17.10;;;13.00;;
58966;SDS011;44744;51.894;5.080;2023-07-09T06:17:14;17.90;;;13.60;;
58966;SDS011;44744;51.894;5.080;2023-07-09T06:18:22;18.30;;;14.00;;
58966;SDS011;44744;51.894;5.080;2023-07-09T06:19:25;19.80;;;14.00;;
58966;SDS011;44744;51.894;5.080;2023-07-09T06:20:25;18.90;;;14.90;;
58966;SDS011;44744;51.894;5.080;2023-07-09T06:21:33;19.50;;;14.80;;
58966;SDS011;44744;51.894;5.080;2023-07-09T06:22:38;20.60;;;16.00;;
58966;SDS011;44744;51.894;5.080;2023-07-09T06:23:39;24.90;;;15.40;;
58966;SDS011;44744;51.894;5.080;2023-07-09T06:24:40;18.70;;;16.00;;
58966;SDS011;44744;51.894;5.080;2023-07-09T06:25:49;24.80;;;16.70;;
58966;SDS011;44744;51.894;5.080;2023-07-09T06:27:02;19.00;;;15.80;;
58966;SDS011;44744;51.894;5.080;2023-07-09T06:28:15;19.40;;;16.10;;
58966;SDS011;44744;51.894;5.080;2023-07-09T06:29:24;19.50;;;15.60;;
58966;SDS011;44744;51.894;5.080;2023-07-09T06:30:25;19.80;;;16.60;;
58966;SDS011;44744;51.894;5.080;2023-07-09T06:31:26;20.70;;;16.40;;
58966;SDS011;44744;51.894;5.080;2023-07-09T06:32:49;24.70;;;16.80;;
58966;SDS011;44744;51.894;5.080;2023-07-09T06:33:51;20.70;;;16.50;;
58966;SDS011;44744;51.894;5.080;2023-07-09T06:35:58;21.40;;;15.40;;
58966;SDS011;44744;51.894;5.080;2023-07-09T06:37:00;20.30;;;15.80;;
58966;SDS011;44744;51.894;5.080;2023-07-09T06:38:04;20.80;;;15.90;;
58966;SDS011;44744;51.894;5.080;2023-07-09T06:39:04;21.00;;;15.90;;
58966;SDS011;44744;51.894;5.080;2023-07-09T06:40:05;18.80;;;15.40;;
58966;SDS011;44744;51.894;5.080;2023-07-09T06:41:08;23.00;;;17.00;;
58966;SDS011;44744;51.894;5.080;2023-07-09T06:42:13;18.60;;;15.90;;
58966;SDS011;44744;51.894;5.080;2023-07-09T06:43:14;20.30;;;15.90;;
58966;SDS011;44744;51.894;5.080;2023-07-09T06:44:15;24.20;;;15.70;;
58966;SDS011;44744;51.894;5.080;2023-07-09T06:45:16;19.20;;;15.20;;
58966;SDS011;44744;51.894;5.080;2023-07-09T06:46:28;19.00;;;15.30;;
58966;SDS011;44744;51.894;5.080;2023-07-09T06:47:28;17.80;;;14.30;;
58966;SDS011;44744;51.894;5.080;2023-07-09T06:48:35;19.80;;;14.80;;